createdAt,value
2022-08-29T00:02:06.118Z,5.73
2022-08-29T00:04:33.632Z,6.00
2022-08-29T00:07:00.983Z,5.83
2022-08-29T00:09:28.317Z,5.80
2022-08-29T00:11:55.738Z,5.70
2022-08-29T00:14:23.306Z,5.47
2022-08-29T00:16:51.457Z,5.47
2022-08-29T00:19:19.106Z,5.47
2022-08-29T00:21:46.503Z,5.57
2022-08-29T00:24:15.614Z,5.87
2022-08-29T00:26:43.372Z,5.60
2022-08-29T00:29:10.806Z,5.50
2022-08-29T00:31:38.432Z,5.83
2022-08-29T00:34:05.948Z,6.10
2022-08-29T00:36:33.226Z,5.90
2022-08-29T00:39:00.495Z,5.90
2022-08-29T00:41:27.825Z,5.70
2022-08-29T00:43:55.073Z,6.53
2022-08-29T00:46:43.605Z,6.00
2022-08-29T00:49:22.890Z,5.90
2022-08-29T00:51:51.280Z,5.90
2022-08-29T00:54:19.176Z,6.53
2022-08-29T00:56:47.116Z,6.40
2022-08-29T00:59:25.497Z,6.20
2022-08-29T01:01:55.804Z,6.00
2022-08-29T01:04:24.245Z,6.33
2022-08-29T01:06:53.847Z,6.47
2022-08-29T01:09:22.586Z,6.10
2022-08-29T01:12:09.365Z,6.23
2022-08-29T01:14:38.731Z,6.20
2022-08-29T01:17:09.403Z,6.87
2022-08-29T01:19:51.978Z,6.03
2022-08-29T01:22:33.748Z,6.57
2022-08-29T01:25:05.460Z,5.90
2022-08-29T01:27:37.162Z,6.23
2022-08-29T01:30:07.887Z,6.30
2022-08-29T01:32:35.347Z,6.40
2022-08-29T01:35:03.224Z,5.80
2022-08-29T01:37:33.646Z,6.03
2022-08-29T01:40:01.606Z,5.90
2022-08-29T01:42:29.294Z,6.07
2022-08-29T01:45:05.359Z,5.73
2022-08-29T01:47:38.805Z,6.43
2022-08-29T01:50:14.420Z,6.30
2022-08-29T01:52:43.008Z,6.03
2022-08-29T01:55:11.656Z,6.17
2022-08-29T01:57:39.687Z,6.10
2022-08-29T02:00:09.561Z,6.70
2022-08-29T02:02:38.348Z,5.83
2022-08-29T02:05:06.943Z,6.33
2022-08-29T02:07:34.477Z,6.43
2022-08-29T02:10:01.902Z,6.10
2022-08-29T02:12:31.594Z,5.70
2022-08-29T02:14:59.800Z,6.70
2022-08-29T02:17:28.071Z,5.93
2022-08-29T02:19:55.761Z,6.60
2022-08-29T02:22:23.157Z,5.90
2022-08-29T02:24:50.767Z,5.67
2022-08-29T02:27:18.158Z,5.97
2022-08-29T02:29:45.466Z,6.23
2022-08-29T02:32:14.818Z,6.40
2022-08-29T02:34:48.418Z,6.10
2022-08-29T02:37:16.679Z,6.50
2022-08-29T02:39:44.333Z,6.00
2022-08-29T02:42:11.780Z,5.73
2022-08-29T02:44:39.062Z,6.60
2022-08-29T02:47:08.955Z,6.33
2022-08-29T02:49:36.549Z,6.10
2022-08-29T02:52:06.633Z,6.40
2022-08-29T02:54:34.907Z,5.70
2022-08-29T02:57:02.582Z,6.60
2022-08-29T02:59:30.051Z,5.87
2022-08-29T03:01:57.519Z,6.03
2022-08-29T03:04:24.888Z,6.23
2022-08-29T03:06:52.373Z,6.07
2022-08-29T03:09:19.685Z,6.63
2022-08-29T03:11:48.517Z,5.87
2022-08-29T03:14:16.094Z,6.60
2022-08-29T03:16:43.559Z,5.67
2022-08-29T03:19:10.822Z,5.97
2022-08-29T03:21:38.095Z,6.00
2022-08-29T03:24:05.694Z,5.90
2022-08-29T03:26:32.950Z,6.07
2022-08-29T03:29:00.236Z,5.87
2022-08-29T03:31:27.528Z,5.97
2022-08-29T03:33:54.964Z,5.90
2022-08-29T03:36:22.313Z,6.37
2022-08-29T03:38:49.982Z,5.93
2022-08-29T03:41:25.951Z,6.07
2022-08-29T03:43:59.161Z,5.87
2022-08-29T03:46:27.813Z,6.10
2022-08-29T03:48:55.643Z,5.63
2022-08-29T03:51:24.046Z,5.80
2022-08-29T03:53:56.559Z,6.13
2022-08-29T03:56:25.315Z,5.83
2022-08-29T03:58:53.579Z,5.37
2022-08-29T04:01:25.845Z,5.57
2022-08-29T04:03:53.259Z,5.37
2022-08-29T04:06:22.469Z,5.57
2022-08-29T04:08:51.766Z,5.63
2022-08-29T04:11:22.003Z,5.30
2022-08-29T04:13:50.042Z,5.80
2022-08-29T04:16:24.206Z,5.63
2022-08-29T04:18:51.789Z,5.50
2022-08-29T04:21:19.363Z,5.97
2022-08-29T04:23:47.329Z,5.70
2022-08-29T04:29:07.729Z,5.00
2022-08-29T04:31:36.476Z,5.23
2022-08-29T04:34:06.394Z,5.07
2022-08-29T04:36:35.233Z,5.13
2022-08-29T04:39:02.981Z,5.50
2022-08-29T04:41:32.958Z,5.30
2022-08-29T04:44:01.598Z,5.87
2022-08-29T04:46:29.045Z,4.80
2022-08-29T04:48:58.506Z,5.27
2022-08-29T04:51:29.883Z,5.30
2022-08-29T04:53:57.301Z,5.30
2022-08-29T04:56:24.600Z,5.20
2022-08-29T04:58:52.239Z,5.03
2022-08-29T05:01:22.915Z,4.93
2022-08-29T05:03:52.480Z,5.00
2022-08-29T05:06:22.677Z,4.53
2022-08-29T05:08:58.879Z,4.67
2022-08-29T05:11:29.674Z,4.70
2022-08-29T05:13:58.104Z,5.30
2022-08-29T05:16:25.906Z,5.00
2022-08-29T05:18:53.545Z,4.40
2022-08-29T05:21:40.514Z,4.93
2022-08-29T05:24:10.869Z,5.00
2022-08-29T05:26:42.121Z,5.10
2022-08-29T05:29:13.179Z,5.03
2022-08-29T05:31:42.386Z,4.80
2022-08-29T05:34:31.949Z,5.10
2022-08-29T05:37:00.542Z,4.83
2022-08-29T05:39:28.302Z,5.13
2022-08-29T05:41:56.703Z,5.00
2022-08-29T05:44:24.435Z,4.80
2022-08-29T05:46:51.826Z,4.60
2022-08-29T05:49:19.458Z,5.03
2022-08-29T05:51:47.132Z,4.53
2022-08-29T05:54:14.624Z,4.87
2022-08-29T05:56:42.940Z,5.07
2022-08-29T05:59:12.578Z,4.60
2022-08-29T06:01:40.350Z,4.87
2022-08-29T06:04:07.837Z,4.57
2022-08-29T06:06:35.379Z,4.67
2022-08-29T06:09:03.080Z,4.70
2022-08-29T06:11:32.431Z,4.50
2022-08-29T06:14:00.759Z,4.33
2022-08-29T06:16:30.062Z,4.80
2022-08-29T06:18:57.357Z,4.60
2022-08-29T06:21:25.088Z,4.60
2022-08-29T06:23:52.455Z,4.70
2022-08-29T06:26:20.009Z,4.87
2022-08-29T06:28:47.988Z,4.33
2022-08-29T06:31:28.054Z,4.80
2022-08-29T06:33:57.952Z,4.87
2022-08-29T06:36:26.975Z,4.63
2022-08-29T06:39:04.217Z,5.53
2022-08-29T06:41:31.480Z,4.97
2022-08-29T06:44:00.276Z,5.30
2022-08-29T06:46:31.537Z,4.87
2022-08-29T06:49:01.431Z,5.33
2022-08-29T06:51:32.971Z,5.30
2022-08-29T06:54:02.216Z,5.20
2022-08-29T06:56:30.093Z,5.60
2022-08-29T06:58:57.728Z,4.90
2022-08-29T07:01:25.402Z,4.97
2022-08-29T07:03:54.252Z,4.77
2022-08-29T07:06:22.000Z,4.63
2022-08-29T07:08:55.960Z,4.83
2022-08-29T07:11:30.127Z,5.00
2022-08-29T07:14:00.499Z,4.47
2022-08-29T07:16:29.183Z,4.73
2022-08-29T07:18:56.464Z,5.07
2022-08-29T07:21:25.322Z,5.47
2022-08-29T07:23:54.635Z,4.90
2022-08-29T07:26:25.911Z,5.10
2022-08-29T07:29:13.698Z,4.90
2022-08-29T07:31:41.453Z,5.00
2022-08-29T07:34:08.890Z,4.80
2022-08-29T07:36:37.531Z,4.63
2022-08-29T07:39:27.692Z,4.57
2022-08-29T07:41:55.137Z,5.07
2022-08-29T07:44:22.746Z,5.60
2022-08-29T07:46:55.736Z,4.03
2022-08-29T07:49:35.937Z,4.77
2022-08-29T07:52:07.856Z,4.20
2022-08-29T07:54:35.215Z,4.00
2022-08-29T07:57:02.505Z,4.33
2022-08-29T07:59:30.996Z,4.47
2022-08-29T08:01:58.379Z,4.27
2022-08-29T08:04:26.487Z,4.87
2022-08-29T08:06:53.763Z,4.67
2022-08-29T08:09:21.095Z,4.90
2022-08-29T08:11:48.401Z,4.47
2022-08-29T08:14:15.675Z,4.63
2022-08-29T08:16:44.158Z,4.53
2022-08-29T08:19:13.879Z,4.60
2022-08-29T08:21:49.605Z,4.43
2022-08-29T08:24:19.714Z,4.33
2022-08-29T08:26:48.841Z,5.10
2022-08-29T08:29:17.547Z,4.10
2022-08-29T08:31:48.838Z,4.90
2022-08-29T08:34:18.112Z,4.53
2022-08-29T08:36:46.433Z,4.80
2022-08-29T08:39:14.798Z,4.40
2022-08-29T08:41:54.575Z,4.00
2022-08-29T08:44:21.804Z,4.10
2022-08-29T08:46:53.060Z,4.40
2022-08-29T08:49:43.164Z,4.80
2022-08-29T08:52:27.717Z,4.20
2022-08-29T08:55:03.385Z,3.80
2022-08-29T08:58:00.478Z,4.07
2022-08-29T09:00:35.595Z,4.30
2022-08-29T09:03:38.979Z,4.07
2022-08-29T09:06:41.092Z,4.20
2022-08-29T09:09:17.160Z,3.97
2022-08-29T09:12:00.081Z,3.80
2022-08-29T09:14:47.310Z,3.60
2022-08-29T09:17:41.865Z,3.53
2022-08-29T09:20:14.755Z,3.40
2022-08-29T09:22:45.123Z,3.73
2022-08-29T09:25:13.323Z,3.53
2022-08-29T09:27:40.941Z,3.03
2022-08-29T09:30:12.331Z,3.50
2022-08-29T09:32:56.236Z,3.77
2022-08-29T09:35:29.467Z,3.67
2022-08-29T09:38:04.968Z,3.60
2022-08-29T09:40:45.485Z,3.70
2022-08-29T09:43:26.947Z,3.87
2022-08-29T09:46:26.344Z,3.43
2022-08-29T09:49:13.067Z,3.60
2022-08-29T09:51:48.811Z,3.60
2022-08-29T09:54:28.895Z,3.43
2022-08-29T09:57:22.119Z,3.33
2022-08-29T10:00:14.862Z,3.70
2022-08-29T10:02:43.163Z,3.67
2022-08-29T10:05:28.280Z,3.57
2022-08-29T10:07:55.832Z,3.30
2022-08-29T10:10:25.787Z,3.50
2022-08-29T10:13:17.306Z,3.80
2022-08-29T10:15:55.287Z,3.77
2022-08-29T10:19:03.307Z,3.73
2022-08-29T10:21:57.497Z,3.37
2022-08-29T10:24:58.611Z,3.70
2022-08-29T10:27:55.350Z,3.40
2022-08-29T10:30:40.296Z,3.80
2022-08-29T10:33:25.127Z,4.10
2022-08-29T10:36:06.591Z,3.60
2022-08-29T10:38:51.829Z,3.10
2022-08-29T10:41:39.333Z,2.93
2022-08-29T10:44:37.197Z,3.50
2022-08-29T10:47:10.684Z,3.17
2022-08-29T10:50:02.219Z,3.50
2022-08-29T10:53:02.568Z,3.30
2022-08-29T10:55:55.870Z,3.20
2022-08-29T10:58:26.383Z,3.17
2022-08-29T11:01:22.593Z,3.17
2022-08-29T11:03:55.395Z,2.90
2022-08-29T11:07:21.230Z,2.83
2022-08-29T11:10:05.660Z,2.73
2022-08-29T11:12:45.406Z,2.83
2022-08-29T11:15:19.405Z,2.80
2022-08-29T11:17:53.805Z,2.87
2022-08-29T11:20:27.572Z,3.10
2022-08-29T11:23:01.756Z,2.80
2022-08-29T11:25:30.308Z,2.93
2022-08-29T11:28:13.252Z,3.07
2022-08-29T11:30:59.898Z,3.10
2022-08-29T11:33:27.412Z,2.77
2022-08-29T11:36:10.548Z,2.23
2022-08-29T11:38:53.435Z,2.77
2022-08-29T11:41:31.360Z,2.80
2022-08-29T11:44:26.493Z,2.90
2022-08-29T11:46:56.514Z,2.70
2022-08-29T11:49:30.274Z,2.57
2022-08-29T11:52:22.370Z,2.50
2022-08-29T11:55:11.523Z,2.30
2022-08-29T11:58:05.189Z,2.43
2022-08-29T12:00:51.598Z,2.57
2022-08-29T12:03:35.096Z,2.43
2022-08-29T12:06:24.518Z,2.40
2022-08-29T12:09:01.746Z,2.23
2022-08-29T12:12:02.586Z,1.90
2022-08-29T12:14:37.969Z,2.23
2022-08-29T12:17:10.026Z,2.60
2022-08-29T12:19:56.269Z,2.60
2022-08-29T12:22:51.463Z,2.00
2022-08-29T12:25:27.771Z,2.60
2022-08-29T12:28:31.146Z,2.23
2022-08-29T12:30:59.479Z,2.30
2022-08-29T12:33:54.400Z,2.00
2022-08-29T12:36:27.661Z,1.93
2022-08-29T12:39:07.400Z,2.00
2022-08-29T12:41:58.701Z,2.10
2022-08-29T12:44:36.124Z,2.07
2022-08-29T12:47:13.099Z,2.30
2022-08-29T12:49:53.110Z,2.20
2022-08-29T12:52:32.505Z,2.30
2022-08-29T12:55:17.946Z,2.03
2022-08-29T12:57:47.531Z,2.10
2022-08-29T13:00:21.563Z,1.87
2022-08-29T13:03:05.291Z,1.70
2022-08-29T13:05:43.239Z,1.67
2022-08-29T13:08:33.351Z,1.87
2022-08-29T13:11:04.300Z,1.70
2022-08-29T13:13:31.780Z,1.80
2022-08-29T13:16:01.686Z,1.80
2022-08-29T13:18:31.272Z,2.00
2022-08-29T13:21:04.226Z,1.83
2022-08-29T13:23:45.855Z,1.80
2022-08-29T13:26:16.152Z,1.83
2022-08-29T13:28:59.048Z,2.00
2022-08-29T13:31:32.791Z,2.30
2022-08-29T13:34:09.465Z,2.03
2022-08-29T13:36:38.942Z,2.10
2022-08-29T13:39:25.234Z,2.10
2022-08-29T13:42:02.021Z,2.10
2022-08-29T13:44:36.194Z,1.93
2022-08-29T13:47:27.811Z,2.10
2022-08-29T13:50:07.881Z,2.17
2022-08-29T13:52:35.330Z,2.70
2022-08-29T13:55:02.837Z,2.50
2022-08-29T13:57:31.537Z,1.90
2022-08-29T13:59:59.099Z,2.20
2022-08-29T14:02:45.255Z,2.00
2022-08-29T14:05:13.735Z,2.00
2022-08-29T14:07:43.776Z,2.43
2022-08-29T14:10:14.139Z,2.43
2022-08-29T14:12:41.552Z,2.30
2022-08-29T14:15:11.107Z,2.07
2022-08-29T14:17:57.210Z,2.20
2022-08-29T14:20:25.380Z,2.10
2022-08-29T14:22:52.692Z,2.20
2022-08-29T14:25:20.376Z,2.30
2022-08-29T14:27:48.444Z,2.27
2022-08-29T14:30:18.954Z,2.20
2022-08-29T14:32:46.584Z,2.20
2022-08-29T14:35:17.064Z,2.10
2022-08-29T14:37:54.015Z,2.50
2022-08-29T14:40:22.119Z,2.30
2022-08-29T14:42:49.811Z,2.10
2022-08-29T14:45:17.296Z,2.27
2022-08-29T14:47:46.351Z,2.47
2022-08-29T14:50:32.840Z,2.23
2022-08-29T14:53:00.197Z,2.20
2022-08-29T14:55:27.782Z,2.43
2022-08-29T14:57:55.072Z,2.10
2022-08-29T15:00:25.930Z,2.47
2022-08-29T15:02:53.623Z,2.20
2022-08-29T15:05:21.190Z,2.17
2022-08-29T15:07:49.488Z,2.23
2022-08-29T15:10:20.117Z,2.03
2022-08-29T15:12:47.508Z,2.63
2022-08-29T15:15:15.068Z,2.40
2022-08-29T15:17:43.692Z,2.37
2022-08-29T15:23:01.741Z,2.47
2022-08-29T15:25:29.020Z,2.33
2022-08-29T15:27:56.345Z,2.43
2022-08-29T15:30:25.034Z,2.20
2022-08-29T15:32:52.687Z,2.07
2022-08-29T15:35:20.534Z,2.30
2022-08-29T15:37:48.092Z,2.43
2022-08-29T15:40:16.184Z,2.03
2022-08-29T15:42:43.589Z,2.00
2022-08-29T15:45:11.834Z,2.30
2022-08-29T15:47:39.810Z,2.20
2022-08-29T15:50:09.941Z,2.17
2022-08-29T15:52:37.820Z,2.27
2022-08-29T15:55:06.730Z,2.23
2022-08-29T15:57:34.247Z,2.23
2022-08-29T16:00:21.534Z,2.30
2022-08-29T16:02:57.896Z,2.03
2022-08-29T16:05:25.311Z,1.90
2022-08-29T16:07:52.724Z,2.20
2022-08-29T16:10:20.595Z,2.40
2022-08-29T16:12:48.002Z,2.27
2022-08-29T16:15:15.297Z,2.20
2022-08-29T16:17:42.581Z,2.23
2022-08-29T16:20:13.802Z,2.40
2022-08-29T16:22:42.256Z,2.10
2022-08-29T16:25:11.371Z,2.13
2022-08-29T16:27:38.840Z,2.10
2022-08-29T16:30:07.260Z,2.40
2022-08-29T16:32:34.729Z,2.30
2022-08-29T16:35:02.481Z,2.40
2022-08-29T16:37:29.866Z,2.20
2022-08-29T16:39:57.331Z,2.57
2022-08-29T16:42:27.564Z,2.43
2022-08-29T16:44:58.764Z,2.43
2022-08-29T16:47:27.858Z,1.80
2022-08-29T16:49:55.104Z,2.73
2022-08-29T16:52:22.510Z,2.40
2022-08-29T16:54:50.724Z,2.30
2022-08-29T16:57:21.419Z,2.20
2022-08-29T16:59:48.983Z,2.40
2022-08-29T17:02:16.800Z,2.33
2022-08-29T17:04:46.306Z,2.00
2022-08-29T17:07:13.945Z,2.33
2022-08-29T17:09:41.309Z,2.30
2022-08-29T17:12:09.382Z,2.13
2022-08-29T17:14:37.644Z,2.30
2022-08-29T17:17:05.433Z,2.40
2022-08-29T17:19:34.411Z,2.70
2022-08-29T17:22:01.856Z,2.60
2022-08-29T17:24:29.294Z,2.70
2022-08-29T17:26:57.497Z,2.57
2022-08-29T17:29:25.046Z,2.67
2022-08-29T17:31:52.633Z,2.30
2022-08-29T17:34:20.186Z,2.30
2022-08-29T17:36:49.668Z,2.47
2022-08-29T17:39:17.334Z,2.87
2022-08-29T17:41:51.668Z,2.50
2022-08-29T17:44:19.145Z,2.73
2022-08-29T17:46:46.459Z,2.50
2022-08-29T17:49:13.866Z,2.33
2022-08-29T17:51:41.425Z,2.47
2022-08-29T17:54:12.416Z,2.50
2022-08-29T17:56:46.350Z,2.63
2022-08-29T17:59:15.377Z,2.33
2022-08-29T18:01:43.537Z,2.67
2022-08-29T18:04:11.633Z,2.50
2022-08-29T18:06:39.849Z,2.90
2022-08-29T18:09:08.330Z,2.90
2022-08-29T18:11:39.293Z,3.40
2022-08-29T18:14:07.385Z,2.60
2022-08-29T18:16:35.194Z,2.73
2022-08-29T18:19:03.184Z,2.90
2022-08-29T18:21:31.967Z,3.17
2022-08-29T18:23:59.963Z,2.90
2022-08-29T18:26:27.456Z,3.23
2022-08-29T18:28:55.776Z,2.87
2022-08-29T18:31:23.799Z,2.77
2022-08-29T18:34:06.479Z,3.37
2022-08-29T18:36:36.233Z,3.10
2022-08-29T18:39:05.071Z,3.50
2022-08-29T18:41:33.612Z,3.47
2022-08-29T18:44:01.075Z,4.17
2022-08-29T18:46:30.195Z,4.67
2022-08-29T18:48:58.300Z,3.47
2022-08-29T18:51:26.133Z,3.37
2022-08-29T18:53:53.760Z,3.37
2022-08-29T18:56:21.201Z,3.13
2022-08-29T18:58:49.107Z,3.33
2022-08-29T19:01:28.792Z,3.67
2022-08-29T19:03:58.139Z,3.97
2022-08-29T19:06:26.121Z,3.73
2022-08-29T19:08:55.491Z,3.70
2022-08-29T19:11:22.838Z,3.97
2022-08-29T19:13:52.584Z,3.97
2022-08-29T19:16:21.330Z,4.47
2022-08-29T19:18:48.977Z,4.10
2022-08-29T19:21:16.309Z,4.50
2022-08-29T19:23:47.437Z,4.00
2022-08-29T19:26:29.431Z,4.40
2022-08-29T19:29:04.944Z,4.50
2022-08-29T19:31:32.862Z,4.60
2022-08-29T19:34:00.747Z,4.90
2022-08-29T19:36:28.112Z,4.80
2022-08-29T19:41:40.087Z,5.00
2022-08-29T19:44:07.567Z,4.37
2022-08-29T19:46:36.172Z,5.50
2022-08-29T19:51:54.272Z,5.13
2022-08-29T19:54:21.733Z,5.13
2022-08-29T19:56:49.383Z,4.80
2022-08-29T19:59:17.375Z,5.37
2022-08-29T20:01:46.163Z,5.23
2022-08-29T20:04:13.690Z,5.20
2022-08-29T20:06:41.304Z,4.87
2022-08-29T20:09:11.808Z,5.10
2022-08-29T20:11:43.753Z,5.87
2022-08-29T20:14:11.355Z,4.80
2022-08-29T20:16:41.994Z,5.37
2022-08-29T20:19:12.036Z,5.33
2022-08-29T20:21:40.884Z,5.50
2022-08-29T20:24:08.232Z,5.20
2022-08-29T20:26:37.232Z,5.60
2022-08-29T20:29:08.225Z,5.57
2022-08-29T20:31:35.695Z,5.30
2022-08-29T20:34:03.590Z,5.70
2022-08-29T20:36:49.618Z,5.77
2022-08-29T20:39:20.089Z,5.57
2022-08-29T20:41:55.421Z,5.33
2022-08-29T20:44:25.342Z,5.93
2022-08-29T20:46:53.459Z,5.73
2022-08-29T20:49:23.964Z,6.00
2022-08-29T20:51:51.473Z,6.07
2022-08-29T20:54:21.890Z,5.87
2022-08-29T20:56:49.757Z,6.00
2022-08-29T20:59:17.238Z,6.27
2022-08-29T21:01:45.056Z,5.83
2022-08-29T21:04:32.683Z,5.63
2022-08-29T21:07:11.174Z,5.90
2022-08-29T21:09:46.103Z,5.90
2022-08-29T21:12:14.887Z,6.43
2022-08-29T21:14:42.482Z,6.37
2022-08-29T21:17:11.372Z,5.63
2022-08-29T21:19:40.191Z,5.97
2022-08-29T21:22:09.193Z,5.47
2022-08-29T21:24:36.582Z,6.17
2022-08-29T21:27:04.327Z,5.63
2022-08-29T21:29:31.925Z,6.23
2022-08-29T21:31:59.234Z,6.53
2022-08-29T21:34:26.550Z,6.60
2022-08-29T21:36:54.558Z,6.30
2022-08-29T21:39:27.847Z,6.83
2022-08-29T21:41:57.357Z,6.90
2022-08-29T21:44:24.721Z,6.57
2022-08-29T21:46:52.817Z,6.20
2022-08-29T21:49:21.941Z,6.57
2022-08-29T21:51:49.713Z,6.20
2022-08-29T21:54:17.761Z,6.23
2022-08-29T21:56:46.694Z,6.73
2022-08-29T21:59:16.540Z,6.57
2022-08-29T22:01:45.625Z,6.33
2022-08-29T22:04:27.797Z,6.20
2022-08-29T22:06:57.728Z,6.33
2022-08-29T22:09:25.811Z,6.17
2022-08-29T22:11:53.461Z,6.67
2022-08-29T22:14:20.784Z,6.50
2022-08-29T22:16:48.054Z,6.27
2022-08-29T22:19:17.402Z,6.10
2022-08-29T22:21:52.124Z,6.27
2022-08-29T22:24:19.815Z,5.90
2022-08-29T22:26:47.522Z,6.30
2022-08-29T22:29:15.896Z,5.63
2022-08-29T22:31:45.035Z,5.80
2022-08-29T22:34:15.117Z,5.77
2022-08-29T22:36:43.485Z,5.00
2022-08-29T22:39:10.993Z,6.07
2022-08-29T22:41:38.562Z,6.10
2022-08-29T22:44:52.723Z,7.17
2022-08-29T22:46:54.398Z,6.70
2022-08-29T22:49:22.016Z,6.40
2022-08-29T22:51:50.329Z,6.70
2022-08-29T22:54:36.922Z,5.87
2022-08-29T22:57:10.516Z,7.00
2022-08-29T22:59:39.063Z,6.00
2022-08-29T23:02:07.387Z,7.13
2022-08-29T23:04:35.063Z,7.10
2022-08-29T23:07:03.077Z,6.40
2022-08-29T23:09:35.065Z,7.10
2022-08-29T23:12:05.761Z,7.10
2022-08-29T23:14:36.034Z,6.43
2022-08-29T23:17:08.284Z,7.70
2022-08-29T23:19:37.029Z,6.23
2022-08-29T23:22:09.536Z,7.53
2022-08-29T23:24:37.391Z,6.70
2022-08-29T23:27:05.407Z,6.60
2022-08-29T23:29:34.135Z,7.00
2022-08-29T23:32:09.195Z,6.30
2022-08-29T23:34:36.505Z,6.87
2022-08-29T23:37:04.271Z,7.13
2022-08-29T23:39:31.663Z,7.27
2022-08-29T23:41:59.571Z,6.93
2022-08-29T23:44:26.861Z,6.47
2022-08-29T23:46:57.515Z,6.80
2022-08-29T23:49:25.024Z,6.27
2022-08-29T23:51:52.263Z,6.70
2022-08-29T23:54:19.787Z,6.40
2022-08-29T23:56:47.201Z,6.40
2022-08-29T23:59:34.602Z,6.70
